ADDS METAR Data INFO
IDs: Format: Raw Decoded Include TAF

Data at: 1944 UTC 17 Feb 2018

KFAM 171941Z AUTO 20007KT 10SM BKN013 OVC024 04/03 A3002 RMK AO2
KFAM 171929Z AUTO 22008KT 10SM FEW009 SCT013 OVC026 04/03 A3002 RMK AO2
KFAM 171922Z AUTO 22007KT 10SM SCT006 BKN011 OVC026 04/02 A3002 RMK AO2
KFAM 171856Z AUTO 21007KT 10SM BKN006 OVC032 04/02 A3002 RMK AO2 SLP173 T00390017
KFAM 171825Z AUTO 20008KT 10SM OVC006 03/02 A3004 RMK AO2
KFAM 171756Z AUTO 19008KT 5SM BR OVC004 02/01 A3006 RMK AO2 RAE44UPB44E56 SLP185 P0003 60016 T00220011 10022 20000 58008 FZRANO
KFAM 171734Z AUTO 19005KT 3SM -RA BR OVC004 02/00 A3007 RMK AO2 P0003 FZRANO
KFAM 171726Z AUTO 19007KT 2 1/2SM -RA BR OVC004 02/01 A3007 RMK AO2 P0003 FZRANO
KFAM 171718Z AUTO 19005KT 1 3/4SM -RA BR OVC004 02/01 A3008 RMK AO2 CIG 003V006 P0003 FZRANO
KFAM 171700Z AUTO 21004KT 1 3/4SM -RA BR OVC006 02/01 A3009 RMK AO2 P0001 FZRANO
KFAM 171656Z AUTO 24005KT 3SM -RA BR OVC006 02/01 A3009 RMK AO2 SLP198 P0010 T00170006 FZRANO TSNO
KFAM 171638Z AUTO 00000KT 4SM -RA BR OVC006 02/01 A3008 RMK AO2 P0007 FZRANO
KFAM 171611Z AUTO 08004KT 3SM -RA BR OVC004 01/00 A3005 RMK AO2 P0003 FZRANO
KFAM 171556Z AUTO 08005KT 2 1/2SM -RA BR OVC004 01/00 A3005 RMK AO2 RAB47SNE47 SLP184 P0002 T00060000 FZRANO
KFAM 171553Z AUTO 09004KT 2SM -RA BR OVC004 01/00 A3005 RMK AO2 RAB47SNE47 P0001 FZRANO
KFAM 171531Z AUTO 13003KT 1 1/2SM -SN BR OVC006 01/M01 A3006 RMK AO2 CIG 002V009 P0001 FZRANO
KFAM 171522Z AUTO 10003KT 1 1/4SM -SN BR OVC004 01/M01 A3006 RMK AO2 CIG 002V009 P0001 FZRANO
KFAM 171508Z AUTO 11004KT 1SM -SN BR BKN004 OVC009 00/M01 A3007 RMK AO2 CIG 002V007 P0000 FZRANO
KFAM 171456Z AUTO 10003KT 3/4SM -SN BR BKN004 OVC009 00/M01 A3008 RMK AO2 CIG 002V007 SLP195 P0000 60001 T00001006 56011 FZRANO
KFAM 171425Z AUTO 00000KT 1/2SM SN FG OVC006 00/M01 A3010 RMK AO2 CIG 003V010 P0000 FZRANO
KFAM 171421Z AUTO 10003KT 1/4SM SN FG BKN004 OVC009 00/M01 A3010 RMK AO2 CIG 003V006 P0000 FZRANO
KFAM 171410Z AUTO 12003KT 1/2SM -SN FG SCT004 OVC009 00/M01 A3010 RMK AO2 CIG 007V013 P0000 FZRANO
KFAM 171400Z AUTO 12004KT 3/4SM -SN BR SCT007 OVC011 00/M01 A3011 RMK AO2 P0000 FZRANO
KFAM 171356Z AUTO 12004KT 1/2SM -SN FG BKN009 OVC018 00/M01 A3011 RMK AO2 RAB27E37SNB37 CIG 006V014 SLP203 P0001 T00001011 FZRANO
KFAM 171348Z AUTO 12003KT 1/2SM -SN FG BKN011 OVC020 01/M01 A3012 RMK AO2 RAB27E37SNB37 CIG 008V014 P0001 FZRANO
KFAM 171340Z AUTO 14004KT 3/4SM -SN BR SCT011 OVC018 01/M01 A3012 RMK AO2 RAB27E37SNB37 P0000 FZRANO
KFAM 171337Z AUTO 14005KT 1 3/4SM -SN BR SCT011 OVC018 01/M01 A3011 RMK AO2 RAB27E37SNB37 P0000 FZRANO
KFAM 171313Z AUTO 15003KT 10SM BKN018 OVC065 01/M02 A3009 RMK AO2 PRESRR FZRANO TSNO
KFAM 171256Z AUTO 11005KT 10SM OVC065 01/M02 A3005 RMK AO2 SLP183 T00061017 FZRANO
KFAM 171156Z AUTO 08005KT 10SM FEW020 OVC095 01/M02 A3012 RMK AO2 PRESFR SLP204 70002 T00061017 10006 21006 58007 FZRANO
KFAM 171147Z AUTO 10003KT 10SM FEW020 SCT075 OVC100 01/M02 A3013 RMK AO2 FZRANO
KFAM 171115Z AUTO 00000KT 10SM BKN020 BKN055 OVC090 01/M02 A3017 RMK AO2 FZRANO
KFAM 171056Z AUTO 00000KT 10SM FEW055 SCT070 OVC090 01/M02 A3016 RMK AO2 SLP220 T00061022 FZRANO
KFAM 170956Z AUTO 09005KT 10SM BKN100 BKN110 01/M02 A3012 RMK AO2 SLP206 T00061022 FZRANO
KFAM 170856Z AUTO 11004KT 10SM SCT120 00/M02 A3014 RMK AO2 PRESFR SLP210 T00001022 58032 FZRANO
KFAM 170756Z AUTO 00000KT 10SM CLR 00/M02 A3018 RMK AO2 SLP228 T00001022 FZRANO
KFAM 170656Z AUTO 13004KT 10SM CLR 00/M02 A3021 RMK AO2 SLP236 T00001022 FZRANO
KFAM 170556Z AUTO 08003KT 10SM CLR M01/M02 A3023 RMK AO2 SLP246 T10061022 10028 21006 401611006 58017 FZRANO
KFAM 170456Z AUTO 00000KT 10SM CLR M01/M03 A3027 RMK AO2 SLP257 T10061028 FZRANO
KFAM 170356Z AUTO 00000KT 10SM CLR 00/M03 A3029 RMK AO2 SLP264 T00001033 FZRANO
KFAM 170256Z AUTO 00000KT 10SM CLR 01/M03 A3029 RMK AO2 SLP263 T00061033 58006 FZRANO
KFAM 170156Z AUTO 00000KT 10SM CLR 01/M04 A3032 RMK AO2 SLP272 T00061039 FZRANO
KFAM 170056Z AUTO 05005KT 10SM CLR 02/M03 A3031 RMK AO2 SLP271 T00171033 FZRANO
KFAM 162356Z AUTO 03007KT 10SM CLR 03/M04 A3031 RMK AO2 SLP267 T00281039 10050 20028 53001
KFAM 162256Z AUTO 34006KT 10SM CLR 04/M03 A3030 RMK AO2 SLP265 T00391033
KFAM 162156Z AUTO 36006KT 10SM CLR 05/M03 A3030 RMK AO2 SLP266 T00501033
KFAM 162056Z AUTO 35009KT 10SM FEW028 05/M02 A3030 RMK AO2 SLP266 T00501022 57004
KFAM 161956Z AUTO 34009G15KT 10SM FEW026 04/M02 A3031 RMK AO2 SLP265 T00441022
KFAM 161944Z AUTO 35009G16KT 10SM FEW026 04/M02 A3031 RMK AO2
KFAM 161856Z AUTO 33011G17KT 10SM OVC024 03/M01 A3031 RMK AO2 SLP263 T00331011
KFAM 161756Z AUTO 32012G17KT 10SM OVC018 03/M01 A3031 RMK AO2 SLP265 60002 T00281011 10033 20017 51026
KFAM 161711Z AUTO 32012KT 10SM OVC016 03/M01 A3030 RMK AO2
KFAM 161656Z AUTO 34011G17KT 10SM OVC014 02/M01 A3031 RMK AO2 SLP264 T00221006 FZRANO
KFAM 161556Z AUTO 31013G18KT 6SM BR OVC014 02/M01 A3029 RMK AO2 SLP256 T00171006 FZRANO
KFAM 161514Z AUTO 33011G18KT 6SM BR OVC014 02/00 A3025 RMK AO2 FZRANO
KFAM 161456Z AUTO 34013G21KT 8SM OVC016 02/M01 A3023 RMK AO2 PK WND 34026/1415 SLP239 60002 T00221006 50029 FZRANO
KFAM 161452Z AUTO 34012G21KT 8SM OVC016 02/00 A3024 RMK AO2 PK WND 34026/1415 FZRANO
KFAM 161356Z AUTO 34011KT 6SM BR OVC014 02/01 A3021 RMK AO2 RAE33 PRESRR SLP229 P0000 T00220006 FZRANO
KFAM 161256Z AUTO 32011KT 6SM -RA BR OVC010 03/01 A3015 RMK AO2 CIG 007V013 SLP207 P0002 T00280011
KFAM 161216Z AUTO 34011G16KT 7SM -RA BKN010 BKN013 OVC100 03/02 A3012 RMK AO2 CIG 006V011 P0002
KFAM 161205Z AUTO 33012G17KT 6SM -RA BR BKN008 OVC085 03/02 A3012 RMK AO2 CIG 006V013 P0001
KFAM 161156Z AUTO 33008KT 7SM -RA SCT008 BKN012 OVC085 03/02 A3012 RMK AO2 SLP195 P0001 60025 70043 T00330022 10161 20033 53030
KFAM 161125Z AUTO 34010G19KT 9SM -RA SCT010 OVC090 03/02 A3010 RMK AO2 P0001
KFAM 161056Z AUTO 34011G19KT 8SM -RA BKN012 OVC075 04/02 A3007 RMK AO2 RAB0959 SLP178 P0003 T00390022
KFAM 161040Z AUTO 33013G19KT 7SM -RA BKN012 OVC065 04/02 A3008 RMK AO2 RAB0959 P0003
KFAM 161013Z AUTO 33013G21KT 9SM -RA SCT012 OVC065 04/02 A3005 RMK AO2 RAB0959 P0000
KFAM 160956Z AUTO 34014G22KT 9SM BKN010 OVC100 05/03 A3003 RMK AO2 RAE49 CIG 008V015 SLP168 P0001 T00500028
KFAM 160948Z AUTO 33010KT 8SM -RA BKN012 BKN070 OVC100 05/04 A3003 RMK AO2 P0001
KFAM 160902Z AUTO 35014G22KT 6SM -RA BR SCT011 BKN060 OVC090 07/05 A3000 RMK AO2 P0000
KFAM 160856Z AUTO 33015G23KT 6SM -RA BR SCT008 BKN013 OVC060 07/05 A3003 RMK AO2 PK WND 32027/0837 PRESRR SLP164 P0010 60020 T00670050 53057
KFAM 160808Z AUTO 35011G18KT 4SM -RA BR OVC006 10/09 A2993 RMK AO2 P0001
KFAM 160756Z AUTO 36012G19KT 5SM -RA BR OVC004 10/09 A2992 RMK AO2 RAE12B32 CIG 004V008 PRESRR SLP127 P0001 T01000094